createdAt,value
2022-12-16T00:03:33.641Z,1.60064697265625
2022-12-16T00:13:33.483Z,2.69927978515625
2022-12-16T00:23:33.417Z,1.60064697265625
2022-12-16T00:33:33.340Z,2.4993896484375
2022-12-16T00:43:33.415Z,2.69927978515625
2022-12-16T00:53:33.342Z,1.89971923828125
2022-12-16T01:03:32.905Z,1.60064697265625
2022-12-16T01:13:32.919Z,1.399993896484375
2022-12-16T01:23:33.031Z,1.60064697265625
2022-12-16T01:33:32.979Z,2.00042724609375
2022-12-16T01:43:32.696Z,2.9998779296875
2022-12-16T01:53:32.784Z,2.2003173828125
2022-12-16T02:03:32.620Z,1.60064697265625
2022-12-16T02:13:32.775Z,2.099609375
2022-12-16T02:23:32.517Z,1.200103759765625
2022-12-16T02:33:32.481Z,2.2003173828125
2022-12-16T02:44:03.159Z,2.40020751953125
2022-12-16T02:53:32.232Z,3.5003662109375
2022-12-16T03:03:32.272Z,1.10015869140625
2022-12-16T03:13:32.058Z,2.4993896484375
2022-12-16T03:23:32.033Z,2.90069580078125
2022-12-16T03:33:32.069Z,1.399993896484375
2022-12-16T03:43:31.818Z,1.000213623046875
2022-12-16T03:53:31.869Z,1.10015869140625
2022-12-16T04:03:31.742Z,1.300048828125
2022-12-16T04:13:31.801Z,3.5003662109375
2022-12-16T04:23:31.522Z,1.49993896484375
2022-12-16T04:33:31.507Z,1.60064697265625
2022-12-16T04:43:31.644Z,1.300048828125
2022-12-16T04:53:31.515Z,2.099609375
2022-12-16T05:03:31.435Z,3.399658203125
2022-12-16T05:13:31.292Z,2.00042724609375
2022-12-16T05:23:31.269Z,2.60009765625
2022-12-16T05:33:31.157Z,2.4993896484375
2022-12-16T05:43:31.074Z,2.29949951171875
2022-12-16T05:53:31.024Z,2.90069580078125
2022-12-16T06:03:30.851Z,3.60107421875
2022-12-16T06:13:33.321Z,3.5003662109375
2022-12-16T06:23:30.370Z,4.400634765625
2022-12-16T06:33:30.717Z,3.5003662109375
2022-12-16T06:43:30.604Z,3.60107421875
2022-12-16T06:53:30.682Z,3.900146484375
2022-12-16T07:03:35.402Z,4.19921875
2022-12-16T07:13:30.348Z,4.400634765625
2022-12-16T07:23:29.968Z,4.19921875
2022-12-16T07:33:30.281Z,3.2989501953125
2022-12-16T07:43:30.037Z,3.1005859375
2022-12-16T07:53:31.534Z,3.5003662109375
2022-12-16T08:03:29.793Z,3.7994384765625
2022-12-16T08:13:29.731Z,2.4993896484375
2022-12-16T08:23:30.006Z,2.90069580078125
2022-12-16T08:33:29.496Z,2.40020751953125
2022-12-16T08:43:29.604Z,3.399658203125
2022-12-16T08:53:29.328Z,3.5003662109375
2022-12-16T09:03:29.373Z,2.60009765625
2022-12-16T09:13:29.349Z,1.800537109375
2022-12-16T09:23:29.156Z,2.69927978515625
2022-12-16T09:33:29.031Z,2.00042724609375
2022-12-16T09:43:28.993Z,3.900146484375
2022-12-16T09:53:28.914Z,3.1005859375
2022-12-16T10:03:28.974Z,3.1005859375
2022-12-16T10:13:29.134Z,4.400634765625
2022-12-16T10:23:28.837Z,3.69873046875
2022-12-16T10:33:28.694Z,3.7994384765625
2022-12-16T10:43:28.561Z,3.7994384765625
2022-12-16T10:53:28.579Z,4.0985107421875
2022-12-16T11:03:28.526Z,2.29949951171875
2022-12-16T11:13:28.328Z,3.399658203125
2022-12-16T11:23:28.288Z,3.60107421875
2022-12-16T11:33:28.211Z,6.201171875
2022-12-16T11:43:29.000Z,4.0985107421875
2022-12-16T11:53:28.349Z,3.69873046875
2022-12-16T12:03:28.142Z,4.0008544921875
2022-12-16T12:13:28.756Z,5.499267578125
2022-12-16T12:23:28.053Z,5.70068359375
2022-12-16T12:33:27.898Z,5.5999755859375
2022-12-16T12:43:27.684Z,7.2998046875
2022-12-16T12:53:27.605Z,5.8990478515625
2022-12-16T13:03:27.579Z,5.70068359375
2022-12-16T13:13:27.464Z,12.09716796875
2022-12-16T13:23:27.404Z,7.2021484375
2022-12-16T13:33:27.327Z,5.0994873046875
2022-12-16T13:43:27.284Z,4.69970703125
2022-12-16T13:53:27.212Z,5.999755859375
2022-12-16T14:03:27.222Z,8.099365234375
2022-12-16T14:13:27.073Z,6.89697265625
2022-12-16T14:23:55.315Z,7.70263671875
2022-12-16T14:33:26.898Z,5.70068359375
2022-12-16T14:43:26.826Z,5.8990478515625
2022-12-16T14:53:26.778Z,7.501220703125
2022-12-16T15:03:27.113Z,8.197021484375
2022-12-16T15:13:26.641Z,8.80126953125
2022-12-16T15:23:26.554Z,6.89697265625
2022-12-16T15:33:26.476Z,9.3017578125
2022-12-16T15:43:26.434Z,8.89892578125
2022-12-16T15:53:26.369Z,14.00146484375
2022-12-16T16:03:26.371Z,9.002685546875
2022-12-16T16:13:26.185Z,8.197021484375
2022-12-16T16:23:26.113Z,8.3984375
2022-12-16T16:33:26.178Z,11.297607421875
2022-12-16T16:43:26.006Z,17.6025390625
2022-12-16T16:53:25.894Z,10.198974609375
2022-12-16T17:03:26.102Z,7.70263671875
2022-12-16T17:13:25.772Z,9.197998046875
2022-12-16T17:23:25.781Z,10.601806640625
2022-12-16T17:33:25.606Z,9.89990234375
2022-12-16T17:43:25.544Z,6.89697265625
2022-12-16T17:53:25.662Z,9.600830078125
2022-12-16T18:03:25.666Z,6.597900390625
2022-12-16T18:13:25.332Z,10.498046875
2022-12-16T18:23:25.296Z,6.402587890625
2022-12-16T18:33:25.173Z,8.3984375
2022-12-16T18:43:25.113Z,8.80126953125
2022-12-16T18:53:25.061Z,9.002685546875
2022-12-16T19:03:25.019Z,6.298828125
2022-12-16T19:13:24.970Z,4.901123046875
2022-12-16T19:23:24.857Z,6.298828125
2022-12-16T19:33:24.795Z,12.09716796875
2022-12-16T19:43:24.738Z,3.60107421875
2022-12-16T19:53:24.648Z,5.499267578125
2022-12-16T19:56:56.550Z,4.8004150390625
2022-12-16T20:06:56.198Z,5.499267578125
2022-12-16T20:16:56.682Z,6.402587890625
2022-12-16T20:26:55.996Z,3.1005859375
2022-12-16T20:36:56.172Z,7.3974609375
2022-12-16T20:46:56.201Z,3.900146484375
2022-12-16T20:56:55.827Z,3.69873046875
2022-12-16T21:06:56.161Z,3.900146484375
2022-12-16T21:16:55.961Z,5.3985595703125
2022-12-16T21:26:56.266Z,4.69970703125
2022-12-16T21:36:55.978Z,3.60107421875
2022-12-16T21:46:56.577Z,4.901123046875
2022-12-16T21:56:56.446Z,3.69873046875
2022-12-16T22:06:56.281Z,2.79998779296875
2022-12-16T22:16:55.474Z,2.69927978515625
2022-12-16T22:26:56.413Z,4.998779296875
2022-12-16T22:36:56.629Z,4.998779296875
2022-12-16T22:46:56.076Z,2.60009765625
2022-12-16T22:56:56.340Z,5.0994873046875
2022-12-16T23:06:56.181Z,4.0985107421875
2022-12-16T23:16:56.466Z,4.5013427734375
2022-12-16T23:26:54.727Z,3.399658203125
2022-12-16T23:36:54.668Z,3.1005859375
2022-12-16T23:46:54.780Z,2.60009765625
2022-12-16T23:56:54.559Z,4.0008544921875
